sensor_id;sensor_type;location;lat;lon;timestamp;P1;durP1;ratioP1;P2;durP2;ratioP2
53881;SDS011;39794;55.782;37.452;2024-03-02T00:01:12;43.30;;;21.42;;
53881;SDS011;39794;55.782;37.452;2024-03-02T00:03:42;47.60;;;21.73;;
53881;SDS011;39794;55.782;37.452;2024-03-02T00:06:12;39.53;;;20.95;;
53881;SDS011;39794;55.782;37.452;2024-03-02T00:08:40;49.20;;;21.63;;
53881;SDS011;39794;55.782;37.452;2024-03-02T00:11:09;42.17;;;22.40;;
53881;SDS011;39794;55.782;37.452;2024-03-02T00:13:38;36.42;;;21.38;;
53881;SDS011;39794;55.782;37.452;2024-03-02T00:16:07;37.13;;;21.55;;
53881;SDS011;39794;55.782;37.452;2024-03-02T00:18:35;43.90;;;21.95;;
53881;SDS011;39794;55.782;37.452;2024-03-02T00:21:05;44.67;;;21.90;;
53881;SDS011;39794;55.782;37.452;2024-03-02T00:23:37;50.83;;;22.73;;
53881;SDS011;39794;55.782;37.452;2024-03-02T00:26:06;42.42;;;23.00;;
53881;SDS011;39794;55.782;37.452;2024-03-02T00:28:36;49.25;;;22.98;;
53881;SDS011;39794;55.782;37.452;2024-03-02T00:31:06;44.33;;;22.60;;
53881;SDS011;39794;55.782;37.452;2024-03-02T00:33:35;40.53;;;22.27;;
53881;SDS011;39794;55.782;37.452;2024-03-02T00:36:06;45.30;;;23.27;;
53881;SDS011;39794;55.782;37.452;2024-03-02T00:38:39;43.58;;;22.63;;
53881;SDS011;39794;55.782;37.452;2024-03-02T00:41:17;43.30;;;22.90;;
53881;SDS011;39794;55.782;37.452;2024-03-02T00:43:58;41.35;;;21.20;;
53881;SDS011;39794;55.782;37.452;2024-03-02T00:46:29;43.97;;;23.27;;
53881;SDS011;39794;55.782;37.452;2024-03-02T00:48:59;44.20;;;22.70;;
53881;SDS011;39794;55.782;37.452;2024-03-02T00:51:29;46.70;;;23.35;;
53881;SDS011;39794;55.782;37.452;2024-03-02T00:54:00;46.47;;;22.73;;
53881;SDS011;39794;55.782;37.452;2024-03-02T00:56:31;40.30;;;21.58;;
53881;SDS011;39794;55.782;37.452;2024-03-02T00:59:02;43.50;;;21.63;;
53881;SDS011;39794;55.782;37.452;2024-03-02T01:01:30;42.83;;;21.85;;
53881;SDS011;39794;55.782;37.452;2024-03-02T01:03:59;46.80;;;22.45;;
53881;SDS011;39794;55.782;37.452;2024-03-02T01:06:27;41.05;;;21.27;;
53881;SDS011;39794;55.782;37.452;2024-03-02T01:08:56;44.33;;;22.35;;
53881;SDS011;39794;55.782;37.452;2024-03-02T01:11:25;50.17;;;22.85;;
53881;SDS011;39794;55.782;37.452;2024-03-02T01:13:54;43.67;;;22.25;;
53881;SDS011;39794;55.782;37.452;2024-03-02T01:16:23;44.80;;;22.23;;
53881;SDS011;39794;55.782;37.452;2024-03-02T01:18:51;42.85;;;21.23;;
53881;SDS011;39794;55.782;37.452;2024-03-02T01:21:20;45.67;;;21.98;;
53881;SDS011;39794;55.782;37.452;2024-03-02T01:23:48;43.45;;;22.33;;
53881;SDS011;39794;55.782;37.452;2024-03-02T01:26:17;45.40;;;22.80;;
53881;SDS011;39794;55.782;37.452;2024-03-02T01:28:46;46.15;;;22.23;;
53881;SDS011;39794;55.782;37.452;2024-03-02T01:31:15;41.75;;;22.05;;
53881;SDS011;39794;55.782;37.452;2024-03-02T01:33:44;43.40;;;21.63;;
53881;SDS011;39794;55.782;37.452;2024-03-02T01:36:13;41.35;;;21.52;;
53881;SDS011;39794;55.782;37.452;2024-03-02T01:38:41;40.95;;;20.92;;
53881;SDS011;39794;55.782;37.452;2024-03-02T01:41:09;49.88;;;21.98;;
53881;SDS011;39794;55.782;37.452;2024-03-02T01:43:38;43.30;;;21.10;;
53881;SDS011;39794;55.782;37.452;2024-03-02T01:46:09;42.63;;;21.95;;
53881;SDS011;39794;55.782;37.452;2024-03-02T01:48:37;51.35;;;23.48;;
53881;SDS011;39794;55.782;37.452;2024-03-02T01:51:06;47.13;;;21.58;;
53881;SDS011;39794;55.782;37.452;2024-03-02T01:53:38;41.88;;;22.05;;
53881;SDS011;39794;55.782;37.452;2024-03-02T01:56:06;42.13;;;22.23;;
53881;SDS011;39794;55.782;37.452;2024-03-02T01:58:35;45.33;;;22.83;;
53881;SDS011;39794;55.782;37.452;2024-03-02T02:01:03;40.35;;;22.27;;
53881;SDS011;39794;55.782;37.452;2024-03-02T02:03:33;38.65;;;21.10;;
53881;SDS011;39794;55.782;37.452;2024-03-02T02:06:02;42.53;;;22.42;;
53881;SDS011;39794;55.782;37.452;2024-03-02T02:08:31;44.90;;;22.75;;
53881;SDS011;39794;55.782;37.452;2024-03-02T02:10:59;48.67;;;23.70;;
53881;SDS011;39794;55.782;37.452;2024-03-02T02:13:28;43.58;;;22.98;;
53881;SDS011;39794;55.782;37.452;2024-03-02T02:16:03;43.17;;;23.10;;
53881;SDS011;39794;55.782;37.452;2024-03-02T02:18:34;49.08;;;23.13;;
53881;SDS011;39794;55.782;37.452;2024-03-02T02:21:03;45.10;;;22.85;;
53881;SDS011;39794;55.782;37.452;2024-03-02T02:23:33;42.35;;;21.52;;
53881;SDS011;39794;55.782;37.452;2024-03-02T02:26:01;42.05;;;22.23;;
53881;SDS011;39794;55.782;37.452;2024-03-02T02:28:32;44.75;;;23.75;;
53881;SDS011;39794;55.782;37.452;2024-03-02T02:31:00;42.95;;;22.33;;
53881;SDS011;39794;55.782;37.452;2024-03-02T02:33:29;37.70;;;21.63;;
53881;SDS011;39794;55.782;37.452;2024-03-02T02:35:58;43.90;;;22.08;;
53881;SDS011;39794;55.782;37.452;2024-03-02T02:38:26;47.30;;;22.08;;
53881;SDS011;39794;55.782;37.452;2024-03-02T02:40:56;45.15;;;22.55;;
53881;SDS011;39794;55.782;37.452;2024-03-02T02:43:24;43.13;;;21.25;;
53881;SDS011;39794;55.782;37.452;2024-03-02T02:45:53;43.05;;;21.17;;
53881;SDS011;39794;55.782;37.452;2024-03-02T02:48:21;47.17;;;22.33;;
53881;SDS011;39794;55.782;37.452;2024-03-02T02:50:50;43.53;;;22.67;;
53881;SDS011;39794;55.782;37.452;2024-03-02T02:53:18;43.65;;;22.90;;
53881;SDS011;39794;55.782;37.452;2024-03-02T02:55:47;41.15;;;21.92;;
53881;SDS011;39794;55.782;37.452;2024-03-02T02:58:16;50.80;;;22.38;;
53881;SDS011;39794;55.782;37.452;2024-03-02T03:00:45;50.00;;;22.75;;
53881;SDS011;39794;55.782;37.452;2024-03-02T03:03:13;47.03;;;24.58;;
53881;SDS011;39794;55.782;37.452;2024-03-02T03:05:44;46.58;;;25.05;;
53881;SDS011;39794;55.782;37.452;2024-03-02T03:08:12;58.92;;;28.40;;
53881;SDS011;39794;55.782;37.452;2024-03-02T03:10:42;60.92;;;27.15;;
53881;SDS011;39794;55.782;37.452;2024-03-02T03:13:12;44.40;;;25.10;;
53881;SDS011;39794;55.782;37.452;2024-03-02T03:15:42;49.40;;;24.60;;
53881;SDS011;39794;55.782;37.452;2024-03-02T03:18:10;57.67;;;25.95;;
53881;SDS011;39794;55.782;37.452;2024-03-02T03:20:39;47.08;;;23.20;;
53881;SDS011;39794;55.782;37.452;2024-03-02T03:23:07;50.10;;;23.20;;
53881;SDS011;39794;55.782;37.452;2024-03-02T03:25:36;42.97;;;23.08;;
53881;SDS011;39794;55.782;37.452;2024-03-02T03:28:04;47.65;;;23.48;;
53881;SDS011;39794;55.782;37.452;2024-03-02T03:30:33;52.25;;;24.75;;
53881;SDS011;39794;55.782;37.452;2024-03-02T03:33:02;51.85;;;23.65;;
53881;SDS011;39794;55.782;37.452;2024-03-02T03:35:32;49.08;;;23.35;;
53881;SDS011;39794;55.782;37.452;2024-03-02T03:38:01;47.10;;;24.13;;
53881;SDS011;39794;55.782;37.452;2024-03-02T03:40:29;49.97;;;25.48;;
53881;SDS011;39794;55.782;37.452;2024-03-02T03:42:58;51.75;;;24.35;;
53881;SDS011;39794;55.782;37.452;2024-03-02T03:45:27;52.90;;;25.40;;
53881;SDS011;39794;55.782;37.452;2024-03-02T03:47:55;46.42;;;23.27;;
53881;SDS011;39794;55.782;37.452;2024-03-02T03:50:25;43.67;;;24.20;;
53881;SDS011;39794;55.782;37.452;2024-03-02T03:52:53;50.72;;;23.80;;
53881;SDS011;39794;55.782;37.452;2024-03-02T03:55:22;48.67;;;23.90;;
53881;SDS011;39794;55.782;37.452;2024-03-02T03:57:50;53.75;;;24.45;;
53881;SDS011;39794;55.782;37.452;2024-03-02T04:00:25;44.53;;;22.98;;
53881;SDS011;39794;55.782;37.452;2024-03-02T04:02:53;50.33;;;25.08;;
53881;SDS011;39794;55.782;37.452;2024-03-02T04:05:21;47.97;;;23.17;;
53881;SDS011;39794;55.782;37.452;2024-03-02T04:07:52;51.75;;;24.05;;
53881;SDS011;39794;55.782;37.452;2024-03-02T04:10:20;45.72;;;23.13;;
53881;SDS011;39794;55.782;37.452;2024-03-02T04:12:49;46.90;;;24.25;;
53881;SDS011;39794;55.782;37.452;2024-03-02T04:15:18;47.63;;;23.77;;
53881;SDS011;39794;55.782;37.452;2024-03-02T04:17:46;47.20;;;22.25;;
53881;SDS011;39794;55.782;37.452;2024-03-02T04:20:15;56.90;;;24.23;;
53881;SDS011;39794;55.782;37.452;2024-03-02T04:22:43;52.00;;;22.80;;
53881;SDS011;39794;55.782;37.452;2024-03-02T04:25:13;46.25;;;23.17;;
53881;SDS011;39794;55.782;37.452;2024-03-02T04:27:42;47.45;;;24.73;;
53881;SDS011;39794;55.782;37.452;2024-03-02T04:30:11;44.55;;;23.80;;
53881;SDS011;39794;55.782;37.452;2024-03-02T04:32:40;51.00;;;23.67;;
53881;SDS011;39794;55.782;37.452;2024-03-02T04:35:13;44.30;;;23.65;;
53881;SDS011;39794;55.782;37.452;2024-03-02T04:37:41;43.53;;;23.52;;
53881;SDS011;39794;55.782;37.452;2024-03-02T04:40:10;49.13;;;25.25;;
53881;SDS011;39794;55.782;37.452;2024-03-02T04:42:41;44.83;;;23.90;;
53881;SDS011;39794;55.782;37.452;2024-03-02T04:45:09;50.60;;;25.55;;
53881;SDS011;39794;55.782;37.452;2024-03-02T04:47:38;53.78;;;24.27;;
53881;SDS011;39794;55.782;37.452;2024-03-02T04:50:07;45.95;;;24.60;;
53881;SDS011;39794;55.782;37.452;2024-03-02T04:52:36;44.88;;;24.42;;
53881;SDS011;39794;55.782;37.452;2024-03-02T04:55:04;47.97;;;24.80;;
53881;SDS011;39794;55.782;37.452;2024-03-02T04:58:03;49.33;;;24.15;;
53881;SDS011;39794;55.782;37.452;2024-03-02T05:00:32;47.00;;;23.38;;
53881;SDS011;39794;55.782;37.452;2024-03-02T05:03:00;50.13;;;24.35;;
53881;SDS011;39794;55.782;37.452;2024-03-02T05:05:29;53.75;;;25.15;;
53881;SDS011;39794;55.782;37.452;2024-03-02T05:07:57;46.83;;;23.38;;
53881;SDS011;39794;55.782;37.452;2024-03-02T05:10:26;45.95;;;22.50;;
53881;SDS011;39794;55.782;37.452;2024-03-02T05:12:54;51.78;;;25.92;;
53881;SDS011;39794;55.782;37.452;2024-03-02T05:15:28;57.05;;;25.58;;
53881;SDS011;39794;55.782;37.452;2024-03-02T05:17:57;49.90;;;25.50;;
53881;SDS011;39794;55.782;37.452;2024-03-02T05:20:27;55.53;;;27.02;;
53881;SDS011;39794;55.782;37.452;2024-03-02T05:22:55;53.70;;;26.05;;
53881;SDS011;39794;55.782;37.452;2024-03-02T05:25:23;55.28;;;26.13;;
53881;SDS011;39794;55.782;37.452;2024-03-02T05:27:54;49.65;;;26.80;;
53881;SDS011;39794;55.782;37.452;2024-03-02T05:30:23;56.75;;;26.50;;
53881;SDS011;39794;55.782;37.452;2024-03-02T05:32:54;53.78;;;27.38;;
53881;SDS011;39794;55.782;37.452;2024-03-02T05:35:23;56.15;;;26.63;;
53881;SDS011;39794;55.782;37.452;2024-03-02T05:37:51;58.95;;;28.98;;
53881;SDS011;39794;55.782;37.452;2024-03-02T05:40:19;55.83;;;27.58;;
53881;SDS011;39794;55.782;37.452;2024-03-02T05:42:50;50.15;;;26.73;;
53881;SDS011;39794;55.782;37.452;2024-03-02T05:45:18;56.83;;;27.60;;
53881;SDS011;39794;55.782;37.452;2024-03-02T05:47:47;61.45;;;28.23;;
53881;SDS011;39794;55.782;37.452;2024-03-02T05:50:17;56.17;;;28.80;;
53881;SDS011;39794;55.782;37.452;2024-03-02T05:52:46;54.15;;;27.65;;
53881;SDS011;39794;55.782;37.452;2024-03-02T05:55:15;58.60;;;29.35;;
53881;SDS011;39794;55.782;37.452;2024-03-02T05:57:43;55.95;;;28.02;;
53881;SDS011;39794;55.782;37.452;2024-03-02T06:00:25;53.53;;;29.08;;
53881;SDS011;39794;55.782;37.452;2024-03-02T06:02:54;57.80;;;29.63;;
53881;SDS011;39794;55.782;37.452;2024-03-02T06:05:24;54.15;;;27.83;;
53881;SDS011;39794;55.782;37.452;2024-03-02T06:07:53;58.67;;;27.88;;
53881;SDS011;39794;55.782;37.452;2024-03-02T06:10:21;70.55;;;32.00;;
53881;SDS011;39794;55.782;37.452;2024-03-02T06:12:49;56.95;;;29.02;;
53881;SDS011;39794;55.782;37.452;2024-03-02T06:15:18;65.85;;;31.48;;
53881;SDS011;39794;55.782;37.452;2024-03-02T06:17:46;64.10;;;32.67;;
53881;SDS011;39794;55.782;37.452;2024-03-02T06:20:15;68.55;;;31.98;;
53881;SDS011;39794;55.782;37.452;2024-03-02T06:22:45;68.88;;;34.83;;
53881;SDS011;39794;55.782;37.452;2024-03-02T06:25:13;72.43;;;36.58;;
53881;SDS011;39794;55.782;37.452;2024-03-02T06:27:43;73.15;;;36.45;;
53881;SDS011;39794;55.782;37.452;2024-03-02T06:30:12;71.10;;;37.70;;
53881;SDS011;39794;55.782;37.452;2024-03-02T06:32:41;74.70;;;39.05;;
53881;SDS011;39794;55.782;37.452;2024-03-02T06:35:09;77.75;;;40.42;;
53881;SDS011;39794;55.782;37.452;2024-03-02T06:37:39;81.22;;;41.70;;
53881;SDS011;39794;55.782;37.452;2024-03-02T06:40:09;82.97;;;45.33;;
53881;SDS011;39794;55.782;37.452;2024-03-02T06:42:38;87.75;;;47.03;;
53881;SDS011;39794;55.782;37.452;2024-03-02T06:45:06;87.88;;;46.72;;
53881;SDS011;39794;55.782;37.452;2024-03-02T06:47:35;94.07;;;46.67;;
53881;SDS011;39794;55.782;37.452;2024-03-02T06:50:04;88.25;;;46.25;;
53881;SDS011;39794;55.782;37.452;2024-03-02T06:52:33;85.43;;;46.58;;
53881;SDS011;39794;55.782;37.452;2024-03-02T06:55:02;92.60;;;47.72;;
53881;SDS011;39794;55.782;37.452;2024-03-02T06:57:33;86.22;;;45.22;;
53881;SDS011;39794;55.782;37.452;2024-03-02T07:00:02;93.88;;;47.35;;
53881;SDS011;39794;55.782;37.452;2024-03-02T07:02:32;87.95;;;46.45;;
53881;SDS011;39794;55.782;37.452;2024-03-02T07:05:00;90.63;;;45.75;;
53881;SDS011;39794;55.782;37.452;2024-03-02T07:07:29;88.43;;;45.22;;
53881;SDS011;39794;55.782;37.452;2024-03-02T07:09:58;89.30;;;44.13;;
53881;SDS011;39794;55.782;37.452;2024-03-02T07:12:27;82.03;;;44.10;;
53881;SDS011;39794;55.782;37.452;2024-03-02T07:14:57;82.43;;;43.35;;
53881;SDS011;39794;55.782;37.452;2024-03-02T07:17:50;83.70;;;43.70;;
53881;SDS011;39794;55.782;37.452;2024-03-02T07:20:19;84.28;;;43.35;;
53881;SDS011;39794;55.782;37.452;2024-03-02T07:22:48;80.72;;;42.03;;
53881;SDS011;39794;55.782;37.452;2024-03-02T07:25:16;85.93;;;44.42;;
53881;SDS011;39794;55.782;37.452;2024-03-02T07:27:48;81.95;;;40.67;;
53881;SDS011;39794;55.782;37.452;2024-03-02T07:30:18;84.68;;;43.35;;
53881;SDS011;39794;55.782;37.452;2024-03-02T07:32:49;81.03;;;41.15;;
53881;SDS011;39794;55.782;37.452;2024-03-02T07:35:18;86.30;;;43.35;;
53881;SDS011;39794;55.782;37.452;2024-03-02T07:37:46;82.40;;;39.60;;
53881;SDS011;39794;55.782;37.452;2024-03-02T07:40:15;82.15;;;41.13;;
53881;SDS011;39794;55.782;37.452;2024-03-02T07:42:44;88.85;;;41.47;;
53881;SDS011;39794;55.782;37.452;2024-03-02T07:45:13;84.80;;;39.72;;
53881;SDS011;39794;55.782;37.452;2024-03-02T07:47:43;81.65;;;42.20;;
53881;SDS011;39794;55.782;37.452;2024-03-02T07:50:12;78.38;;;40.22;;
53881;SDS011;39794;55.782;37.452;2024-03-02T07:52:40;78.65;;;39.05;;
53881;SDS011;39794;55.782;37.452;2024-03-02T07:55:09;79.00;;;39.90;;
53881;SDS011;39794;55.782;37.452;2024-03-02T07:57:38;77.15;;;39.13;;
53881;SDS011;39794;55.782;37.452;2024-03-02T08:00:07;79.80;;;38.70;;
53881;SDS011;39794;55.782;37.452;2024-03-02T08:02:39;74.22;;;37.20;;
53881;SDS011;39794;55.782;37.452;2024-03-02T08:05:10;70.88;;;36.25;;
53881;SDS011;39794;55.782;37.452;2024-03-02T08:07:39;75.32;;;36.78;;
53881;SDS011;39794;55.782;37.452;2024-03-02T08:10:08;69.03;;;34.85;;
53881;SDS011;39794;55.782;37.452;2024-03-02T08:12:37;63.55;;;35.17;;
53881;SDS011;39794;55.782;37.452;2024-03-02T08:15:05;68.38;;;34.95;;
53881;SDS011;39794;55.782;37.452;2024-03-02T08:17:34;66.18;;;34.13;;
53881;SDS011;39794;55.782;37.452;2024-03-02T08:20:05;68.22;;;34.30;;
53881;SDS011;39794;55.782;37.452;2024-03-02T08:22:36;58.13;;;31.85;;
53881;SDS011;39794;55.782;37.452;2024-03-02T08:25:05;54.05;;;29.08;;
53881;SDS011;39794;55.782;37.452;2024-03-02T08:27:34;75.28;;;33.72;;
53881;SDS011;39794;55.782;37.452;2024-03-02T08:30:03;65.70;;;33.30;;
53881;SDS011;39794;55.782;37.452;2024-03-02T08:32:34;59.03;;;33.78;;
53881;SDS011;39794;55.782;37.452;2024-03-02T08:35:02;65.00;;;32.78;;
53881;SDS011;39794;55.782;37.452;2024-03-02T08:37:32;63.10;;;35.00;;
53881;SDS011;39794;55.782;37.452;2024-03-02T08:40:02;57.88;;;32.30;;
53881;SDS011;39794;55.782;37.452;2024-03-02T08:42:34;62.10;;;32.50;;
53881;SDS011;39794;55.782;37.452;2024-03-02T08:45:02;65.80;;;33.75;;
53881;SDS011;39794;55.782;37.452;2024-03-02T08:47:31;56.33;;;29.42;;
53881;SDS011;39794;55.782;37.452;2024-03-02T08:50:00;58.17;;;29.48;;
53881;SDS011;39794;55.782;37.452;2024-03-02T08:52:30;63.22;;;32.50;;
53881;SDS011;39794;55.782;37.452;2024-03-02T08:54:59;58.00;;;32.53;;
53881;SDS011;39794;55.782;37.452;2024-03-02T08:57:31;56.67;;;30.48;;
53881;SDS011;39794;55.782;37.452;2024-03-02T09:02:53;59.78;;;30.60;;
53881;SDS011;39794;55.782;37.452;2024-03-02T09:05:22;56.42;;;30.42;;
53881;SDS011;39794;55.782;37.452;2024-03-02T09:07:51;60.72;;;33.13;;
53881;SDS011;39794;55.782;37.452;2024-03-02T09:10:19;69.60;;;32.70;;
53881;SDS011;39794;55.782;37.452;2024-03-02T09:12:52;63.38;;;32.42;;
53881;SDS011;39794;55.782;37.452;2024-03-02T09:15:21;59.92;;;30.15;;
53881;SDS011;39794;55.782;37.452;2024-03-02T09:17:49;58.78;;;31.52;;
53881;SDS011;39794;55.782;37.452;2024-03-02T09:20:21;57.10;;;31.92;;
53881;SDS011;39794;55.782;37.452;2024-03-02T09:22:50;64.93;;;32.80;;
53881;SDS011;39794;55.782;37.452;2024-03-02T09:25:18;59.20;;;32.65;;
53881;SDS011;39794;55.782;37.452;2024-03-02T09:27:46;70.93;;;35.58;;
53881;SDS011;39794;55.782;37.452;2024-03-02T09:30:16;65.25;;;33.40;;
53881;SDS011;39794;55.782;37.452;2024-03-02T09:32:45;68.05;;;36.42;;
53881;SDS011;39794;55.782;37.452;2024-03-02T09:35:16;63.50;;;33.20;;
53881;SDS011;39794;55.782;37.452;2024-03-02T09:37:45;65.97;;;34.97;;
53881;SDS011;39794;55.782;37.452;2024-03-02T09:40:13;68.68;;;34.88;;
53881;SDS011;39794;55.782;37.452;2024-03-02T09:42:43;69.65;;;34.67;;
53881;SDS011;39794;55.782;37.452;2024-03-02T09:45:19;71.63;;;37.15;;
53881;SDS011;39794;55.782;37.452;2024-03-02T09:47:51;65.53;;;34.22;;
53881;SDS011;39794;55.782;37.452;2024-03-02T09:50:19;59.60;;;31.33;;
53881;SDS011;39794;55.782;37.452;2024-03-02T09:52:48;61.13;;;33.85;;
53881;SDS011;39794;55.782;37.452;2024-03-02T09:55:17;69.80;;;33.55;;
53881;SDS011;39794;55.782;37.452;2024-03-02T09:57:46;63.78;;;33.72;;
53881;SDS011;39794;55.782;37.452;2024-03-02T10:00:17;67.75;;;34.22;;
53881;SDS011;39794;55.782;37.452;2024-03-02T10:02:50;60.45;;;33.85;;
53881;SDS011;39794;55.782;37.452;2024-03-02T10:05:25;67.20;;;34.35;;
53881;SDS011;39794;55.782;37.452;2024-03-02T10:07:59;65.25;;;33.25;;
53881;SDS011;39794;55.782;37.452;2024-03-02T10:10:36;62.65;;;33.15;;
53881;SDS011;39794;55.782;37.452;2024-03-02T10:13:07;60.47;;;31.40;;
53881;SDS011;39794;55.782;37.452;2024-03-02T10:15:37;59.78;;;31.42;;
53881;SDS011;39794;55.782;37.452;2024-03-02T10:18:09;60.22;;;30.60;;
53881;SDS011;39794;55.782;37.452;2024-03-02T10:20:39;67.53;;;33.03;;
53881;SDS011;39794;55.782;37.452;2024-03-02T10:23:11;68.13;;;31.75;;
53881;SDS011;39794;55.782;37.452;2024-03-02T10:25:41;65.05;;;31.63;;
53881;SDS011;39794;55.782;37.452;2024-03-02T10:28:23;58.58;;;31.00;;
53881;SDS011;39794;55.782;37.452;2024-03-02T10:30:54;55.00;;;29.05;;
53881;SDS011;39794;55.782;37.452;2024-03-02T10:33:25;57.92;;;29.67;;
53881;SDS011;39794;55.782;37.452;2024-03-02T10:35:53;59.97;;;30.40;;
53881;SDS011;39794;55.782;37.452;2024-03-02T10:38:22;57.08;;;30.42;;
53881;SDS011;39794;55.782;37.452;2024-03-02T10:40:50;51.40;;;28.25;;
53881;SDS011;39794;55.782;37.452;2024-03-02T10:43:19;56.03;;;28.92;;
53881;SDS011;39794;55.782;37.452;2024-03-02T10:45:49;49.72;;;26.17;;
53881;SDS011;39794;55.782;37.452;2024-03-02T10:48:18;53.05;;;27.38;;
53881;SDS011;39794;55.782;37.452;2024-03-02T10:50:49;48.10;;;26.50;;
53881;SDS011;39794;55.782;37.452;2024-03-02T10:53:20;48.47;;;24.58;;
53881;SDS011;39794;55.782;37.452;2024-03-02T10:55:48;49.42;;;25.73;;
53881;SDS011;39794;55.782;37.452;2024-03-02T10:58:21;48.65;;;27.20;;
53881;SDS011;39794;55.782;37.452;2024-03-02T11:00:50;45.67;;;24.77;;
53881;SDS011;39794;55.782;37.452;2024-03-02T11:03:19;50.03;;;25.27;;
53881;SDS011;39794;55.782;37.452;2024-03-02T11:05:49;52.10;;;26.33;;
53881;SDS011;39794;55.782;37.452;2024-03-02T11:08:18;54.75;;;27.20;;
53881;SDS011;39794;55.782;37.452;2024-03-02T11:10:49;47.95;;;26.83;;
53881;SDS011;39794;55.782;37.452;2024-03-02T11:13:21;51.78;;;26.80;;
53881;SDS011;39794;55.782;37.452;2024-03-02T11:15:52;48.17;;;25.45;;
53881;SDS011;39794;55.782;37.452;2024-03-02T11:18:24;44.72;;;25.70;;
53881;SDS011;39794;55.782;37.452;2024-03-02T11:20:55;52.92;;;27.75;;
53881;SDS011;39794;55.782;37.452;2024-03-02T11:23:31;52.97;;;26.52;;
53881;SDS011;39794;55.782;37.452;2024-03-02T11:28:51;56.78;;;27.17;;
53881;SDS011;39794;55.782;37.452;2024-03-02T11:31:22;51.83;;;26.85;;
53881;SDS011;39794;55.782;37.452;2024-03-02T11:33:51;54.72;;;27.95;;
53881;SDS011;39794;55.782;37.452;2024-03-02T11:36:20;53.67;;;26.67;;
53881;SDS011;39794;55.782;37.452;2024-03-02T11:38:49;51.13;;;28.17;;
53881;SDS011;39794;55.782;37.452;2024-03-02T11:41:20;51.88;;;25.95;;
53881;SDS011;39794;55.782;37.452;2024-03-02T11:43:47;52.97;;;28.25;;
53881;SDS011;39794;55.782;37.452;2024-03-02T11:46:16;54.70;;;26.20;;
53881;SDS011;39794;55.782;37.452;2024-03-02T11:48:50;54.53;;;28.10;;
53881;SDS011;39794;55.782;37.452;2024-03-02T11:51:18;51.72;;;27.00;;
53881;SDS011;39794;55.782;37.452;2024-03-02T11:53:48;51.90;;;27.75;;
53881;SDS011;39794;55.782;37.452;2024-03-02T11:56:18;57.10;;;27.20;;
53881;SDS011;39794;55.782;37.452;2024-03-02T11:58:47;53.33;;;26.65;;
53881;SDS011;39794;55.782;37.452;2024-03-02T12:01:19;53.88;;;28.70;;
53881;SDS011;39794;55.782;37.452;2024-03-02T12:03:49;52.08;;;27.65;;
53881;SDS011;39794;55.782;37.452;2024-03-02T12:06:19;57.35;;;27.67;;
53881;SDS011;39794;55.782;37.452;2024-03-02T12:08:53;53.95;;;26.92;;
53881;SDS011;39794;55.782;37.452;2024-03-02T12:11:22;51.58;;;27.58;;
53881;SDS011;39794;55.782;37.452;2024-03-02T12:13:53;51.83;;;27.30;;
53881;SDS011;39794;55.782;37.452;2024-03-02T12:16:23;53.35;;;27.33;;
53881;SDS011;39794;55.782;37.452;2024-03-02T12:18:52;57.47;;;27.05;;
53881;SDS011;39794;55.782;37.452;2024-03-02T12:21:21;51.55;;;26.65;;
53881;SDS011;39794;55.782;37.452;2024-03-02T12:23:49;55.15;;;28.40;;
53881;SDS011;39794;55.782;37.452;2024-03-02T12:26:20;50.33;;;27.05;;
53881;SDS011;39794;55.782;37.452;2024-03-02T12:28:50;52.22;;;27.55;;
53881;SDS011;39794;55.782;37.452;2024-03-02T12:31:19;59.75;;;26.95;;
53881;SDS011;39794;55.782;37.452;2024-03-02T12:33:47;48.70;;;24.60;;
53881;SDS011;39794;55.782;37.452;2024-03-02T12:36:19;52.33;;;26.63;;
53881;SDS011;39794;55.782;37.452;2024-03-02T12:38:48;50.75;;;25.30;;
53881;SDS011;39794;55.782;37.452;2024-03-02T12:41:27;47.65;;;23.80;;
53881;SDS011;39794;55.782;37.452;2024-03-02T12:43:58;50.13;;;24.58;;
53881;SDS011;39794;55.782;37.452;2024-03-02T12:46:27;45.55;;;24.17;;
53881;SDS011;39794;55.782;37.452;2024-03-02T12:48:56;50.67;;;24.13;;
53881;SDS011;39794;55.782;37.452;2024-03-02T12:51:24;50.55;;;24.85;;
53881;SDS011;39794;55.782;37.452;2024-03-02T12:53:53;46.63;;;24.65;;
53881;SDS011;39794;55.782;37.452;2024-03-02T12:56:22;51.58;;;25.27;;
53881;SDS011;39794;55.782;37.452;2024-03-02T12:59:05;49.65;;;24.73;;
53881;SDS011;39794;55.782;37.452;2024-03-02T13:01:34;45.40;;;24.52;;
53881;SDS011;39794;55.782;37.452;2024-03-02T13:04:02;40.63;;;19.30;;
53881;SDS011;39794;55.782;37.452;2024-03-02T13:06:32;52.47;;;26.65;;
53881;SDS011;39794;55.782;37.452;2024-03-02T13:09:01;47.10;;;25.38;;
53881;SDS011;39794;55.782;37.452;2024-03-02T13:11:30;42.47;;;19.77;;
53881;SDS011;39794;55.782;37.452;2024-03-02T13:14:00;47.00;;;25.38;;
53881;SDS011;39794;55.782;37.452;2024-03-02T13:16:30;50.40;;;24.90;;
53881;SDS011;39794;55.782;37.452;2024-03-02T13:19:09;53.00;;;24.50;;
53881;SDS011;39794;55.782;37.452;2024-03-02T13:21:39;50.90;;;24.50;;
53881;SDS011;39794;55.782;37.452;2024-03-02T13:24:07;36.28;;;19.48;;
53881;SDS011;39794;55.782;37.452;2024-03-02T13:26:36;49.40;;;23.77;;
53881;SDS011;39794;55.782;37.452;2024-03-02T13:29:04;38.85;;;23.15;;
53881;SDS011;39794;55.782;37.452;2024-03-02T13:31:36;41.35;;;21.80;;
53881;SDS011;39794;55.782;37.452;2024-03-02T13:34:04;45.80;;;22.85;;
53881;SDS011;39794;55.782;37.452;2024-03-02T13:36:33;46.10;;;24.30;;
53881;SDS011;39794;55.782;37.452;2024-03-02T13:39:02;47.60;;;24.35;;
53881;SDS011;39794;55.782;37.452;2024-03-02T13:41:32;48.47;;;23.75;;
53881;SDS011;39794;55.782;37.452;2024-03-02T13:44:00;45.78;;;22.67;;
53881;SDS011;39794;55.782;37.452;2024-03-02T13:46:29;43.55;;;22.85;;
53881;SDS011;39794;55.782;37.452;2024-03-02T13:48:59;42.40;;;22.75;;
53881;SDS011;39794;55.782;37.452;2024-03-02T13:51:28;39.13;;;19.20;;
53881;SDS011;39794;55.782;37.452;2024-03-02T13:53:56;44.05;;;21.80;;
53881;SDS011;39794;55.782;37.452;2024-03-02T13:56:27;35.15;;;19.23;;
53881;SDS011;39794;55.782;37.452;2024-03-02T13:58:55;41.55;;;21.27;;
53881;SDS011;39794;55.782;37.452;2024-03-02T14:01:24;43.45;;;20.88;;
53881;SDS011;39794;55.782;37.452;2024-03-02T14:03:53;37.60;;;20.15;;
53881;SDS011;39794;55.782;37.452;2024-03-02T14:06:24;36.38;;;20.38;;
53881;SDS011;39794;55.782;37.452;2024-03-02T14:08:53;44.08;;;21.00;;
53881;SDS011;39794;55.782;37.452;2024-03-02T14:11:22;36.70;;;18.77;;
53881;SDS011;39794;55.782;37.452;2024-03-02T14:13:51;36.65;;;19.73;;
53881;SDS011;39794;55.782;37.452;2024-03-02T14:16:21;36.05;;;19.67;;
53881;SDS011;39794;55.782;37.452;2024-03-02T14:18:49;37.78;;;19.65;;
53881;SDS011;39794;55.782;37.452;2024-03-02T14:21:18;35.75;;;19.67;;
53881;SDS011;39794;55.782;37.452;2024-03-02T14:23:48;35.42;;;19.67;;
53881;SDS011;39794;55.782;37.452;2024-03-02T14:26:16;36.08;;;18.77;;
53881;SDS011;39794;55.782;37.452;2024-03-02T14:28:46;37.92;;;19.23;;